Time;durP1;ratioP1;P1;durP2;ratioP2;P2;SDS_P1;SDS_P2;PMS_P1;PMS_P2;Temp;Humidity;BMP_temperature;BMP_pressure;BME280_temperature;BME280_humidity;BME280_pressure;Samples;Min_cycle;Max_cycle;Signal;HPM_P1;HPM_P2
2022/10/16 00:00:38;;;;;;;10.65;4.72;;;;;;;;;;6003361;23;20421;-91
2022/10/16 00:04:20;;;;;;;8.68;4.70;;;;;;;;;;6039811;23;20023;-92
2022/10/16 00:07:39;;;;;;;7.60;4.43;;;;;;;;;;6018136;23;20027;-92
2022/10/16 00:22:13;;;;;;;6.53;3.65;;;;;;;;;;6096836;23;20014;-91
2022/10/16 00:25:36;;;;;;;10.82;4.05;;;;;;;;;;6082883;23;20022;-91
2022/10/16 00:28:24;;;;;;;6.10;3.45;;;;;;;;;;6052991;23;20083;-91
2022/10/16 00:31:44;;;;;;;6.85;3.22;;;;;;;;;;6086150;23;20037;-92
2022/10/16 00:38:38;;;;;;;6.40;2.83;;;;;;;;;;6103106;23;20448;-92
2022/10/16 00:47:05;;;;;;;6.35;2.97;;;;;;;;;;6069101;23;20077;-92
2022/10/16 00:54:43;;;;;;;12.80;4.20;;;;;;;;;;5955060;24;20031;-93
2022/10/16 01:06:41;;;;;;;6.43;3.83;;;;;;;;;;5963773;24;20123;-92
2022/10/16 01:10:21;;;;;;;7.65;3.30;;;;;;;;;;5908639;24;20017;-92
2022/10/16 01:13:47;;;;;;;7.05;3.75;;;;;;;;;;5953088;23;20015;-91
2022/10/16 01:17:52;;;;;;;9.63;3.05;;;;;;;;;;5994073;23;20071;-92
2022/10/16 01:21:02;;;;;;;9.30;3.42;;;;;;;;;;5986188;23;20024;-88
2022/10/16 01:24:59;;;;;;;5.32;3.15;;;;;;;;;;6008217;23;20087;-87
2022/10/16 01:27:40;;;;;;;6.68;3.30;;;;;;;;;;5984623;23;20043;-87
2022/10/16 01:34:13;;;;;;;5.68;3.05;;;;;;;;;;5982108;24;20123;-92
2022/10/16 01:38:01;;;;;;;7.88;3.30;;;;;;;;;;5943926;24;20024;-93
2022/10/16 01:41:53;;;;;;;5.28;2.97;;;;;;;;;;5981477;24;20379;-87
2022/10/16 01:45:00;;;;;;;6.00;3.38;;;;;;;;;;5967357;23;20171;-88
2022/10/16 01:48:07;;;;;;;7.15;3.13;;;;;;;;;;5951375;24;20403;-87
2022/10/16 01:51:24;;;;;;;4.03;2.70;;;;;;;;;;5922791;24;20025;-88
2022/10/16 01:54:59;;;;;;;5.45;2.72;;;;;;;;;;5915067;24;20456;-88
2022/10/16 02:01:38;;;;;;;6.30;2.67;;;;;;;;;;5904707;24;20012;-92
2022/10/16 02:05:29;;;;;;;7.15;2.58;;;;;;;;;;5903065;24;20029;-92
2022/10/16 02:13:17;;;;;;;7.38;2.75;;;;;;;;;;5965955;23;20340;-90
2022/10/16 02:17:12;;;;;;;7.93;2.60;;;;;;;;;;5921679;24;20498;-90
2022/10/16 02:21:15;;;;;;;4.65;2.47;;;;;;;;;;5930515;24;20028;-90
2022/10/16 02:24:47;;;;;;;5.55;2.50;;;;;;;;;;6048129;23;20015;-88
2022/10/16 02:28:32;;;;;;;6.13;2.92;;;;;;;;;;6127754;23;20067;-87
2022/10/16 02:31:30;;;;;;;6.65;2.70;;;;;;;;;;6092522;23;20456;-90
2022/10/16 02:42:59;;;;;;;4.20;2.60;;;;;;;;;;6007815;23;20041;-87
2022/10/16 02:45:50;;;;;;;9.45;2.90;;;;;;;;;;6007943;23;20478;-87
2022/10/16 02:48:58;;;;;;;4.50;2.75;;;;;;;;;;6007644;23;20095;-87
2022/10/16 02:52:36;;;;;;;4.60;2.50;;;;;;;;;;5985499;23;20027;-91
2022/10/16 02:55:42;;;;;;;4.65;2.60;;;;;;;;;;5953249;24;20482;-90
2022/10/16 02:59:33;;;;;;;6.28;3.00;;;;;;;;;;5844004;24;20416;-90
2022/10/16 03:02:50;;;;;;;4.93;2.55;;;;;;;;;;5934928;24;20032;-87
2022/10/16 03:05:53;;;;;;;4.78;2.33;;;;;;;;;;6001760;23;20490;-87
2022/10/16 03:08:59;;;;;;;4.32;2.50;;;;;;;;;;5998268;23;20019;-87
2022/10/16 03:12:42;;;;;;;4.63;2.30;;;;;;;;;;6009562;23;20019;-90
2022/10/16 03:15:52;;;;;;;6.03;2.50;;;;;;;;;;5925385;24;20040;-90
2022/10/16 03:18:35;;;;;;;7.18;2.20;;;;;;;;;;5886298;24;20021;-90
2022/10/16 03:21:42;;;;;;;4.15;2.33;;;;;;;;;;5882832;24;20044;-92
2022/10/16 03:25:25;;;;;;;5.82;2.00;;;;;;;;;;5938626;24;20029;-92
2022/10/16 03:28:22;;;;;;;9.52;2.10;;;;;;;;;;5850257;24;20029;-92
2022/10/16 03:31:32;;;;;;;10.05;2.17;;;;;;;;;;5846188;24;20472;-91
2022/10/16 03:35:01;;;;;;;5.43;1.98;;;;;;;;;;5851165;24;20026;-90
2022/10/16 03:38:32;;;;;;;3.65;1.83;;;;;;;;;;5868251;24;20026;-90
2022/10/16 03:41:38;;;;;;;6.25;2.00;;;;;;;;;;5775117;24;20045;-91
2022/10/16 03:45:02;;;;;;;3.88;1.90;;;;;;;;;;5831439;24;20036;-90
2022/10/16 03:52:22;;;;;;;5.00;1.63;;;;;;;;;;6068812;23;20021;-91
2022/10/16 03:56:19;;;;;;;4.45;1.83;;;;;;;;;;6067577;23;20019;-91
2022/10/16 03:59:32;;;;;;;4.65;1.88;;;;;;;;;;6117612;23;20020;-91
2022/10/16 04:07:21;;;;;;;5.13;1.88;;;;;;;;;;6128571;23;20092;-93
2022/10/16 04:10:27;;;;;;;3.30;1.60;;;;;;;;;;6050647;23;20057;-93
2022/10/16 04:13:45;;;;;;;5.25;2.35;;;;;;;;;;6084758;23;20094;-93
2022/10/16 04:21:27;;;;;;;7.55;2.17;;;;;;;;;;6093443;23;20560;-91
2022/10/16 04:25:01;;;;;;;6.10;1.73;;;;;;;;;;6047844;23;20022;-91
2022/10/16 04:28:31;;;;;;;5.53;1.90;;;;;;;;;;5906734;24;20029;-91
2022/10/16 04:32:18;;;;;;;2.75;1.50;;;;;;;;;;5936525;24;20071;-93
2022/10/16 04:35:43;;;;;;;4.72;1.73;;;;;;;;;;5964135;24;20039;-92
2022/10/16 04:43:01;;;;;;;4.90;1.50;;;;;;;;;;5909174;24;20406;-90
2022/10/16 04:50:22;;;;;;;3.47;1.60;;;;;;;;;;5910684;24;20019;-90
2022/10/16 04:53:43;;;;;;;4.43;1.63;;;;;;;;;;5981220;24;20598;-92
2022/10/16 05:00:35;;;;;;;3.65;1.67;;;;;;;;;;5966669;23;20509;-92
2022/10/16 05:07:59;;;;;;;7.65;1.52;;;;;;;;;;5903381;24;20025;-92
2022/10/16 05:11:22;;;;;;;7.03;1.73;;;;;;;;;;5830941;24;20021;-93
2022/10/16 05:14:58;;;;;;;4.63;1.60;;;;;;;;;;5799162;24;20046;-93
2022/10/16 05:18:30;;;;;;;6.32;1.60;;;;;;;;;;5770694;24;20110;-93
2022/10/16 05:29:36;;;;;;;5.75;2.00;;;;;;;;;;5842092;24;20078;-93
2022/10/16 05:33:11;;;;;;;6.38;1.60;;;;;;;;;;5856242;24;20026;-93
2022/10/16 05:43:57;;;;;;;6.97;1.83;;;;;;;;;;5818809;24;20018;-93
2022/10/16 05:47:23;;;;;;;7.53;2.08;;;;;;;;;;5872401;24;20458;-93
2022/10/16 05:54:50;;;;;;;8.07;2.05;;;;;;;;;;5895936;24;20040;-92
2022/10/16 05:58:17;;;;;;;6.85;2.10;;;;;;;;;;5894377;24;20026;-92
2022/10/16 06:02:30;;;;;;;4.47;2.40;;;;;;;;;;5876793;24;20029;-93
2022/10/16 06:06:14;;;;;;;7.57;2.03;;;;;;;;;;5876929;24;20022;-92
2022/10/16 06:09:39;;;;;;;5.97;2.13;;;;;;;;;;5871611;24;20151;-92
2022/10/16 06:16:48;;;;;;;5.18;1.85;;;;;;;;;;5835471;24;20022;-92
2022/10/16 06:24:25;;;;;;;4.90;1.90;;;;;;;;;;5896895;24;20093;-92
2022/10/16 06:28:59;;;;;;;4.22;2.00;;;;;;;;;;5981591;24;20099;-92
2022/10/16 06:32:32;;;;;;;5.82;1.88;;;;;;;;;;5954372;24;20047;-92
2022/10/16 06:35:42;;;;;;;6.97;2.13;;;;;;;;;;5915699;24;20464;-92
2022/10/16 06:39:06;;;;;;;4.82;2.17;;;;;;;;;;5902870;24;20025;-92
2022/10/16 06:42:45;;;;;;;4.15;1.75;;;;;;;;;;5871515;24;20056;-92
2022/10/16 06:50:14;;;;;;;6.00;2.13;;;;;;;;;;5845138;24;20029;-93
2022/10/16 06:53:14;;;;;;;7.20;2.30;;;;;;;;;;5912578;23;20017;-94
2022/10/16 06:56:50;;;;;;;4.88;2.22;;;;;;;;;;5956730;23;20374;-93
2022/10/16 07:04:09;;;;;;;8.10;1.95;;;;;;;;;;5934548;24;20096;-93
2022/10/16 07:07:48;;;;;;;6.65;2.50;;;;;;;;;;5943121;24;20036;-93
2022/10/16 07:10:48;;;;;;;6.03;2.35;;;;;;;;;;5936755;23;20475;-93
2022/10/16 07:14:02;;;;;;;8.10;2.60;;;;;;;;;;6014699;23;20011;-92
2022/10/16 07:17:03;;;;;;;5.88;2.50;;;;;;;;;;6057113;23;20030;-94
2022/10/16 07:20:25;;;;;;;6.50;2.33;;;;;;;;;;6100940;23;20018;-93
2022/10/16 07:27:49;;;;;;;5.47;2.20;;;;;;;;;;6071406;23;20017;-93
2022/10/16 07:31:13;;;;;;;6.55;2.45;;;;;;;;;;6046582;23;20018;-93
2022/10/16 07:34:37;;;;;;;6.30;2.45;;;;;;;;;;6169681;23;20013;-93
2022/10/16 07:38:00;;;;;;;4.90;2.40;;;;;;;;;;6195200;23;20016;-93
2022/10/16 07:41:21;;;;;;;4.22;2.58;;;;;;;;;;6109191;23;20049;-92
2022/10/16 07:44:29;;;;;;;5.00;2.42;;;;;;;;;;6075112;23;20043;-92
2022/10/16 07:48:16;;;;;;;4.95;2.30;;;;;;;;;;6125792;23;20026;-91
2022/10/16 07:51:25;;;;;;;5.72;1.98;;;;;;;;;;6089214;23;20087;-92
2022/10/16 07:54:36;;;;;;;5.28;2.30;;;;;;;;;;6117524;23;20025;-92
2022/10/16 07:57:56;;;;;;;3.40;1.95;;;;;;;;;;6130426;23;20416;-92
2022/10/16 08:01:50;;;;;;;4.38;1.80;;;;;;;;;;6131049;23;20018;-93
2022/10/16 08:09:37;;;;;;;7.10;2.30;;;;;;;;;;6101882;23;20152;-93
2022/10/16 08:12:58;;;;;;;4.72;2.38;;;;;;;;;;6054218;23;20093;-93
2022/10/16 08:16:17;;;;;;;5.25;2.25;;;;;;;;;;6214802;23;20067;-93
2022/10/16 08:20:02;;;;;;;9.23;2.20;;;;;;;;;;6164083;23;20020;-93
2022/10/16 08:22:54;;;;;;;5.80;1.92;;;;;;;;;;6152806;23;20013;-93
2022/10/16 08:26:26;;;;;;;6.72;2.28;;;;;;;;;;6121272;23;20018;-93
2022/10/16 08:33:15;;;;;;;8.32;2.17;;;;;;;;;;5959968;24;20348;-92
2022/10/16 08:40:51;;;;;;;4.05;2.00;;;;;;;;;;5978271;23;20078;-91
2022/10/16 08:48:44;;;;;;;4.93;2.20;;;;;;;;;;5928410;24;20179;-91
2022/10/16 08:52:21;;;;;;;5.97;1.95;;;;;;;;;;5920310;24;20017;-91
2022/10/16 08:55:45;;;;;;;4.27;1.87;;;;;;;;;;5949613;24;20457;-91
2022/10/16 08:58:55;;;;;;;5.28;2.00;;;;;;;;;;5906436;24;20274;-91
2022/10/16 09:01:49;;;;;;;5.18;1.70;;;;;;;;;;5981311;24;20024;-91
2022/10/16 09:05:37;;;;;;;5.32;1.65;;;;;;;;;;5981754;24;20091;-91
2022/10/16 09:09:26;;;;;;;3.67;2.03;;;;;;;;;;5949654;23;20072;-91
2022/10/16 09:13:31;;;;;;;8.70;2.05;;;;;;;;;;5981509;24;20020;-91
2022/10/16 09:17:23;;;;;;;4.00;1.60;;;;;;;;;;5948533;24;20016;-91
2022/10/16 09:21:47;;;;;;;7.35;2.00;;;;;;;;;;5954185;24;20017;-91
2022/10/16 09:26:25;;;;;;;6.30;1.48;;;;;;;;;;5980900;23;20538;-91
2022/10/16 09:29:35;;;;;;;2.67;1.42;;;;;;;;;;6043380;23;20078;-92
2022/10/16 09:33:06;;;;;;;4.07;1.50;;;;;;;;;;6066977;23;20034;-92
2022/10/16 09:36:50;;;;;;;3.45;1.40;;;;;;;;;;5982585;23;20395;-90
2022/10/16 09:40:50;;;;;;;3.70;1.40;;;;;;;;;;5962314;24;20100;-92
2022/10/16 09:44:26;;;;;;;;;;;;;;;;;;5881488;24;20086;-91
2022/10/16 09:47:49;;;;;;;2.78;1.30;;;;;;;;;;5877012;24;19920;-91
2022/10/16 09:51:09;;;;;;;8.05;1.30;;;;;;;;;;5868559;24;20018;-90
2022/10/16 09:54:17;;;;;;;3.95;1.38;;;;;;;;;;5873148;24;20066;-91
2022/10/16 09:57:38;;;;;;;3.90;1.33;;;;;;;;;;5823906;24;20121;-92
2022/10/16 10:02:13;;;;;;;3.38;1.48;;;;;;;;;;5843021;24;20015;-91
2022/10/16 10:05:45;;;;;;;3.45;1.00;;;;;;;;;;5895393;24;20036;-91
2022/10/16 10:13:35;;;;;;;4.00;1.23;;;;;;;;;;5872400;24;20486;-91
2022/10/16 10:16:36;;;;;;;4.13;1.40;;;;;;;;;;5926354;24;20089;-92
2022/10/16 10:20:38;;;;;;;;;;;;;;;;;;5865537;24;20509;-91
2022/10/16 10:24:05;;;;;;;6.32;1.55;;;;;;;;;;5898408;24;20337;-92
2022/10/16 10:31:08;;;;;;;4.40;1.23;;;;;;;;;;5802796;24;20082;-91
2022/10/16 10:34:59;;;;;;;4.53;1.13;;;;;;;;;;5822508;24;20018;-87
2022/10/16 10:38:15;;;;;;;3.67;1.45;;;;;;;;;;5768433;24;20103;-86
2022/10/16 10:42:00;;;;;;;7.55;1.38;;;;;;;;;;6003786;23;20107;-86
2022/10/16 10:46:21;;;;;;;4.13;1.20;;;;;;;;;;5869930;24;20098;-87
2022/10/16 10:49:41;;;;;;;3.83;1.13;;;;;;;;;;5802148;24;20023;-87
2022/10/16 10:53:33;;;;;;;6.27;1.50;;;;;;;;;;5816329;24;20027;-87
2022/10/16 10:57:32;;;;;;;4.95;1.30;;;;;;;;;;5816141;24;20018;-86
2022/10/16 11:00:56;;;;;;;5.50;1.10;;;;;;;;;;5822618;24;20099;-87
2022/10/16 11:04:52;;;;;;;2.30;1.00;;;;;;;;;;5813588;24;20480;-86
2022/10/16 11:07:55;;;;;;;3.10;1.17;;;;;;;;;;5778587;24;20229;-87
2022/10/16 11:11:45;;;;;;;4.57;1.00;;;;;;;;;;5912345;24;20032;-87
2022/10/16 11:15:35;;;;;;;3.20;0.90;;;;;;;;;;5957560;23;20032;-87
2022/10/16 11:19:07;;;;;;;3.85;1.10;;;;;;;;;;5944552;23;20023;-88
2022/10/16 11:27:33;;;;;;;4.22;1.00;;;;;;;;;;5898437;24;20057;-87
2022/10/16 11:31:51;;;;;;;3.10;1.00;;;;;;;;;;5897465;24;20100;-88
2022/10/16 11:34:57;;;;;;;4.43;1.00;;;;;;;;;;5872935;24;20037;-87
2022/10/16 11:37:58;;;;;;;6.45;0.95;;;;;;;;;;5881997;24;20025;-86
2022/10/16 11:41:50;;;;;;;4.43;1.55;;;;;;;;;;5888794;24;20032;-87
2022/10/16 11:45:04;;;;;;;2.38;0.75;;;;;;;;;;5921860;24;20025;-88
2022/10/16 11:48:41;;;;;;;4.30;1.15;;;;;;;;;;5921353;24;20534;-87
2022/10/16 11:52:18;;;;;;;8.77;1.30;;;;;;;;;;5883011;24;20025;-87
2022/10/16 11:56:02;;;;;;;3.88;0.80;;;;;;;;;;5897991;24;20021;-86
2022/10/16 11:59:31;;;;;;;5.78;0.60;;;;;;;;;;5937604;24;20020;-86
2022/10/16 12:03:42;;;;;;;2.75;0.70;;;;;;;;;;5984217;23;20028;-86
2022/10/16 12:07:09;;;;;;;3.70;0.80;;;;;;;;;;5925783;24;20036;-88
2022/10/16 12:10:41;;;;;;;6.30;0.95;;;;;;;;;;5885150;24;20932;-87
2022/10/16 12:13:48;;;;;;;6.18;1.10;;;;;;;;;;5889403;24;20370;-87
2022/10/16 12:16:46;;;;;;;5.53;1.23;;;;;;;;;;5853450;24;20078;-87
2022/10/16 12:20:32;;;;;;;4.60;0.80;;;;;;;;;;5870503;24;20074;-87
2022/10/16 12:23:31;;;;;;;6.50;1.20;;;;;;;;;;5840543;24;20029;-87
2022/10/16 12:26:54;;;;;;;5.07;1.00;;;;;;;;;;5880232;24;20408;-87
2022/10/16 12:29:50;;;;;;;10.18;0.98;;;;;;;;;;5894656;24;20466;-88
2022/10/16 12:33:34;;;;;;;7.78;1.10;;;;;;;;;;5860674;24;20037;-87
2022/10/16 12:36:47;;;;;;;3.30;1.17;;;;;;;;;;5875763;24;20030;-87
2022/10/16 12:40:44;;;;;;;11.00;1.20;;;;;;;;;;5860623;24;20018;-87
2022/10/16 12:48:10;;;;;;;4.78;0.90;;;;;;;;;;6055510;23;20025;-87
2022/10/16 12:51:10;;;;;;;3.65;0.88;;;;;;;;;;6045532;23;20047;-86
2022/10/16 12:54:50;;;;;;;3.20;1.05;;;;;;;;;;6107680;23;20036;-87
2022/10/16 12:58:51;;;;;;;5.30;0.80;;;;;;;;;;6078644;23;20026;-87
2022/10/16 13:02:10;;;;;;;7.43;1.20;;;;;;;;;;6123831;23;20014;-87
2022/10/16 13:05:37;;;;;;;4.82;1.15;;;;;;;;;;6081882;23;20132;-86
2022/10/16 13:09:02;;;;;;;4.35;1.13;;;;;;;;;;5994138;23;20525;-87
2022/10/16 13:12:59;;;;;;;6.78;0.90;;;;;;;;;;6066070;23;20524;-87
2022/10/16 13:16:14;;;;;;;3.25;1.00;;;;;;;;;;6064774;23;20023;-87
2022/10/16 13:19:59;;;;;;;6.72;1.33;;;;;;;;;;5897505;24;20025;-87
2022/10/16 13:24:08;;;;;;;6.15;0.93;;;;;;;;;;5870155;24;20065;-86
2022/10/16 13:27:33;;;;;;;3.08;0.82;;;;;;;;;;5779483;24;20034;-86
2022/10/16 13:31:21;;;;;;;3.10;1.58;;;;;;;;;;5792869;24;20531;-86
2022/10/16 13:35:25;;;;;;;3.80;1.00;;;;;;;;;;5763549;24;20508;-86
2022/10/16 13:38:47;;;;;;;3.25;0.85;;;;;;;;;;5743285;24;20032;-86
2022/10/16 13:42:55;;;;;;;5.50;1.20;;;;;;;;;;5743143;24;20035;-87
2022/10/16 13:46:06;;;;;;;4.72;0.90;;;;;;;;;;5640893;25;20092;-86
2022/10/16 13:49:28;;;;;;;2.25;1.30;;;;;;;;;;5618085;25;20026;-88
2022/10/16 13:52:43;;;;;;;3.30;0.90;;;;;;;;;;5644590;25;20327;-87
2022/10/16 13:56:19;;;;;;;3.28;0.70;;;;;;;;;;5692156;25;20365;-88
2022/10/16 14:00:07;;;;;;;5.47;1.52;;;;;;;;;;5690907;25;20506;-87
2022/10/16 14:03:51;;;;;;;4.93;0.93;;;;;;;;;;5711251;25;20023;-86
2022/10/16 14:07:25;;;;;;;9.02;1.10;;;;;;;;;;5793865;24;20030;-87
2022/10/16 14:10:54;;;;;;;4.07;1.15;;;;;;;;;;5884295;24;20450;-87
2022/10/16 14:14:08;;;;;;;;;;;;;;;;;;5870184;24;20354;-86
2022/10/16 14:20:23;;;;;;;6.22;1.10;;;;;;;;;;5843075;24;20033;-87
2022/10/16 14:23:57;;;;;;;3.42;0.80;;;;;;;;;;5924178;24;20401;-87
2022/10/16 14:27:20;;;;;;;5.63;1.08;;;;;;;;;;5941239;24;20115;-87
2022/10/16 14:30:30;;;;;;;5.47;1.27;;;;;;;;;;6019709;23;20019;-87
2022/10/16 14:33:47;;;;;;;2.92;0.85;;;;;;;;;;6002721;23;20018;-86
2022/10/16 14:37:09;;;;;;;2.70;1.05;;;;;;;;;;6035972;23;20034;-86
2022/10/16 14:40:02;;;;;;;4.75;1.10;;;;;;;;;;5956915;23;20102;-87
2022/10/16 14:43:11;;;;;;;4.85;1.00;;;;;;;;;;6014160;23;20019;-86
2022/10/16 14:46:51;;;;;;;3.25;1.15;;;;;;;;;;6012110;23;20109;-87
2022/10/16 14:50:08;;;;;;;6.00;0.90;;;;;;;;;;6040595;23;20741;-86
2022/10/16 14:53:14;;;;;;;5.85;0.90;;;;;;;;;;6000929;23;20023;-86
2022/10/16 14:55:59;;;;;;;4.43;0.90;;;;;;;;;;5986703;23;20024;-87
2022/10/16 14:59:07;;;;;;;4.32;0.80;;;;;;;;;;5986148;23;20671;-87
2022/10/16 15:02:40;;;;;;;5.25;1.17;;;;;;;;;;5980611;24;20446;-87
2022/10/16 15:06:10;;;;;;;5.13;1.40;;;;;;;;;;5958452;24;20136;-87
2022/10/16 15:10:05;;;;;;;2.75;0.93;;;;;;;;;;5961609;24;20458;-87
2022/10/16 15:13:14;;;;;;;3.35;0.95;;;;;;;;;;6014616;23;20465;-86
2022/10/16 15:20:27;;;;;;;5.97;1.00;;;;;;;;;;6015585;23;20019;-86
2022/10/16 15:23:30;;;;;;;6.85;1.27;;;;;;;;;;6022947;23;20461;-86
2022/10/16 15:30:37;;;;;;;4.80;1.02;;;;;;;;;;6015049;23;20402;-86
2022/10/16 15:34:25;;;;;;;7.32;1.50;;;;;;;;;;5967775;23;20462;-87
2022/10/16 15:37:19;;;;;;;3.78;1.20;;;;;;;;;;5992608;23;20023;-86
2022/10/16 15:40:30;;;;;;;7.78;1.13;;;;;;;;;;6009981;23;20031;-87
2022/10/16 15:43:18;;;;;;;6.97;1.13;;;;;;;;;;6035110;23;20022;-86
2022/10/16 15:46:56;;;;;;;2.33;0.80;;;;;;;;;;6076344;23;20022;-87
2022/10/16 15:50:30;;;;;;;5.20;1.33;;;;;;;;;;6073275;23;20037;-87
2022/10/16 15:53:20;;;;;;;10.18;1.30;;;;;;;;;;5922530;24;20020;-86
2022/10/16 15:56:38;;;;;;;9.23;1.30;;;;;;;;;;5996120;23;20024;-87
2022/10/16 16:00:00;;;;;;;8.15;2.10;;;;;;;;;;6084120;23;20029;-86
2022/10/16 16:02:53;;;;;;;9.23;1.42;;;;;;;;;;6086372;23;20022;-87
2022/10/16 16:06:26;;;;;;;5.22;1.40;;;;;;;;;;6069991;23;20033;-87
2022/10/16 16:09:51;;;;;;;5.13;1.35;;;;;;;;;;6071038;23;20023;-87
2022/10/16 16:16:25;;;;;;;6.32;1.25;;;;;;;;;;6070969;23;20069;-86
2022/10/16 16:19:24;;;;;;;3.35;1.23;;;;;;;;;;6138786;23;20044;-87
2022/10/16 16:22:50;;;;;;;3.85;1.20;;;;;;;;;;6135478;23;20021;-86
2022/10/16 16:26:27;;;;;;;5.18;1.30;;;;;;;;;;6260720;22;20026;-87
2022/10/16 16:29:39;;;;;;;4.82;1.40;;;;;;;;;;6201345;23;20016;-87
2022/10/16 16:32:50;;;;;;;4.70;0.95;;;;;;;;;;6202079;23;20023;-87
2022/10/16 16:36:13;;;;;;;5.38;1.30;;;;;;;;;;6157616;23;20756;-87
2022/10/16 16:39:43;;;;;;;5.53;1.10;;;;;;;;;;6100004;23;20021;-88
2022/10/16 16:42:35;;;;;;;6.78;1.10;;;;;;;;;;6024844;23;20080;-91
2022/10/16 16:49:41;;;;;;;5.18;1.30;;;;;;;;;;6030075;23;20086;-87
2022/10/16 16:53:10;;;;;;;6.05;1.30;;;;;;;;;;5990075;23;20016;-87
2022/10/16 17:03:17;;;;;;;5.32;2.05;;;;;;;;;;5982146;23;20446;-87
2022/10/16 17:20:11;;;;;;;7.70;2.00;;;;;;;;;;5767834;22;16258912;-88
2022/10/16 17:23:40;;;;;;;7.65;1.95;;;;;;;;;;6258835;22;20290;-88
2022/10/16 17:27:01;;;;;;;6.82;1.70;;;;;;;;;;6300731;22;20010;-87
2022/10/16 17:30:42;;;;;;;4.85;2.30;;;;;;;;;;6287253;22;20027;-88
2022/10/16 17:33:59;;;;;;;3.88;1.98;;;;;;;;;;6152621;23;20454;-88
2022/10/16 17:37:17;;;;;;;5.68;1.95;;;;;;;;;;6135436;23;20017;-88
2022/10/16 17:40:53;;;;;;;9.27;2.60;;;;;;;;;;6119685;23;20025;-88
2022/10/16 17:45:07;;;;;;;5.57;2.20;;;;;;;;;;6162040;23;20026;-88
2022/10/16 17:48:26;;;;;;;;;;;;;;;;;;6166660;23;20103;-88
2022/10/16 17:51:42;;;;;;;6.70;2.22;;;;;;;;;;6069865;23;19917;-88
2022/10/16 17:55:24;;;;;;;7.63;2.30;;;;;;;;;;6100081;23;20477;-88
2022/10/16 17:58:44;;;;;;;7.18;2.83;;;;;;;;;;6100913;23;20014;-88
2022/10/16 18:07:27;;;;;;;5.32;2.42;;;;;;;;;;6106983;23;20017;-94
2022/10/16 18:15:32;;;;;;;13.27;3.15;;;;;;;;;;5961391;24;20041;-94
2022/10/16 20:02:23;;;;;;;13.35;5.70;;;;;;;;;;6252199;22;20027;-93
2022/10/16 20:05:27;;;;;;;11.20;5.40;;;;;;;;;;6180887;23;20510;-93
2022/10/16 20:08:59;;;;;;;11.60;5.20;;;;;;;;;;5691315;23;16456994;-93
2022/10/16 20:13:07;;;;;;;11.02;5.53;;;;;;;;;;5954927;24;20063;-93
2022/10/16 20:21:00;;;;;;;9.25;5.00;;;;;;;;;;5962381;24;20073;-95
2022/10/16 20:24:14;;;;;;;15.57;7.38;;;;;;;;;;5847438;24;20029;-95
2022/10/16 20:28:19;;;;;;;13.30;5.40;;;;;;;;;;5902209;24;20113;-95
2022/10/16 20:36:54;;;;;;;15.18;5.50;;;;;;;;;;5859716;24;20040;-96
2022/10/16 20:44:47;;;;;;;12.32;5.95;;;;;;;;;;5860214;24;20022;-89
2022/10/16 21:12:05;;;;;;;11.65;6.25;;;;;;;;;;5524444;22;17025099;-92
2022/10/16 21:19:51;;;;;;;12.68;5.50;;;;;;;;;;6075452;23;20015;-93
2022/10/16 21:28:28;;;;;;;15.02;6.10;;;;;;;;;;6053931;23;20018;-94
2022/10/16 21:32:30;;;;;;;14.63;5.80;;;;;;;;;;6017126;23;20019;-88
2022/10/16 21:36:37;;;;;;;18.30;6.10;;;;;;;;;;5997831;23;20102;-88
2022/10/16 21:40:05;;;;;;;11.38;4.88;;;;;;;;;;5977469;24;20024;-88
2022/10/16 21:43:59;;;;;;;12.43;5.75;;;;;;;;;;5968370;23;20605;-89
2022/10/16 21:47:50;;;;;;;15.73;5.50;;;;;;;;;;6118024;23;20018;-89
2022/10/16 21:50:59;;;;;;;10.65;5.63;;;;;;;;;;6001729;23;20023;-94
2022/10/16 21:53:56;;;;;;;13.32;6.28;;;;;;;;;;6012962;23;20482;-89
2022/10/16 22:01:20;;;;;;;12.55;5.65;;;;;;;;;;5918408;24;20017;-92
2022/10/16 22:13:34;;;;;;;13.98;5.10;;;;;;;;;;5966330;24;20528;-95
2022/10/16 22:25:15;;;;;;;7.82;4.13;;;;;;;;;;6058920;23;20346;-93
2022/10/16 22:28:46;;;;;;;8.43;4.03;;;;;;;;;;6032726;23;20026;-92
2022/10/16 22:32:32;;;;;;;7.00;4.10;;;;;;;;;;6068992;23;20042;-93
2022/10/16 22:39:44;;;;;;;11.40;4.32;;;;;;;;;;5988060;23;20094;-92
2022/10/16 22:43:43;;;;;;;9.27;4.18;;;;;;;;;;5991980;23;20016;-91
2022/10/16 22:51:49;;;;;;;7.97;3.53;;;;;;;;;;6044808;23;20019;-93
2022/10/16 23:08:18;;;;;;;12.85;2.63;;;;;;;;;;6041164;23;20039;-95
2022/10/16 23:15:34;;;;;;;5.70;2.40;;;;;;;;;;6091281;23;19995;-92
2022/10/16 23:19:29;;;;;;;4.63;2.25;;;;;;;;;;6044165;23;20030;-92
2022/10/16 23:23:08;;;;;;;8.75;2.58;;;;;;;;;;6065906;23;20594;-88
2022/10/16 23:29:39;;;;;;;8.68;2.78;;;;;;;;;;5949252;23;20024;-88
2022/10/16 23:37:48;;;;;;;7.45;2.42;;;;;;;;;;5950790;24;20024;-94
2022/10/16 23:45:49;;;;;;;5.90;2.72;;;;;;;;;;5883660;24;20080;-93
2022/10/16 23:49:06;;;;;;;8.10;2.70;;;;;;;;;;5893515;24;20118;-93
2022/10/16 23:52:42;;;;;;;5.03;2.40;;;;;;;;;;5898353;24;20461;-87
2022/10/16 23:55:50;;;;;;;4.95;2.58;;;;;;;;;;5912585;24;20022;-87
2022/10/16 23:58:50;;;;;;;8.70;3.10;;;;;;;;;;5842629;24;20083;-87
